sensor_id;sensor_type;location;lat;lon;timestamp;temperature;humidity
71304;DHT22;59091;47.446;19.148;2022-09-12T00:01:51;17.08;70.02
71304;DHT22;59091;47.446;19.148;2022-09-12T00:04:17;16.99;70.21
71304;DHT22;59091;47.446;19.148;2022-09-12T00:06:42;16.94;70.57
71304;DHT22;59091;47.446;19.148;2022-09-12T00:09:11;16.86;70.79
71304;DHT22;59091;47.446;19.148;2022-09-12T00:11:39;16.78;71.26
71304;DHT22;59091;47.446;19.148;2022-09-12T00:14:07;16.67;71.58
71304;DHT22;59091;47.446;19.148;2022-09-12T00:16:34;16.67;71.36
71304;DHT22;59091;47.446;19.148;2022-09-12T00:19:00;16.72;71.44
71304;DHT22;59091;47.446;19.148;2022-09-12T00:21:26;16.76;71.22
71304;DHT22;59091;47.446;19.148;2022-09-12T00:23:52;16.81;71.13
71304;DHT22;59091;47.446;19.148;2022-09-12T00:26:19;16.88;70.70
71304;DHT22;59091;47.446;19.148;2022-09-12T00:28:45;16.84;70.90
71304;DHT22;59091;47.446;19.148;2022-09-12T00:31:13;16.81;70.84
71304;DHT22;59091;47.446;19.148;2022-09-12T00:33:39;16.69;71.38
71304;DHT22;59091;47.446;19.148;2022-09-12T00:36:07;16.64;71.34
71304;DHT22;59091;47.446;19.148;2022-09-12T00:38:33;16.69;71.05
71304;DHT22;59091;47.446;19.148;2022-09-12T00:41:03;16.55;71.66
71304;DHT22;59091;47.446;19.148;2022-09-12T00:45:55;16.57;71.59
71304;DHT22;59091;47.446;19.148;2022-09-12T00:48:29;16.50;71.78
71304;DHT22;59091;47.446;19.148;2022-09-12T00:50:56;16.51;71.83
71304;DHT22;59091;47.446;19.148;2022-09-12T00:53:22;16.57;71.62
71304;DHT22;59091;47.446;19.148;2022-09-12T00:55:49;16.48;71.89
71304;DHT22;59091;47.446;19.148;2022-09-12T00:58:28;16.41;72.02
71304;DHT22;59091;47.446;19.148;2022-09-12T01:00:55;16.37;72.41
71304;DHT22;59091;47.446;19.148;2022-09-12T01:03:21;16.33;72.38
71304;DHT22;59091;47.446;19.148;2022-09-12T01:06:02;16.21;72.86
71304;DHT22;59091;47.446;19.148;2022-09-12T01:08:30;16.14;72.97
71304;DHT22;59091;47.446;19.148;2022-09-12T01:10:57;16.21;72.92
71304;DHT22;59091;47.446;19.148;2022-09-12T01:13:22;16.30;72.56
71304;DHT22;59091;47.446;19.148;2022-09-12T01:15:48;16.28;72.69
71304;DHT22;59091;47.446;19.148;2022-09-12T01:29:32;16.31;72.14
71304;DHT22;59091;47.446;19.148;2022-09-12T01:34:50;16.41;71.84
71304;DHT22;59091;47.446;19.148;2022-09-12T01:37:30;16.34;72.04
71304;DHT22;59091;47.446;19.148;2022-09-12T01:40:29;16.35;71.99
71304;DHT22;59091;47.446;19.148;2022-09-12T01:43:10;16.45;72.09
71304;DHT22;59091;47.446;19.148;2022-09-12T01:45:45;16.37;72.17
71304;DHT22;59091;47.446;19.148;2022-09-12T01:48:15;16.40;71.91
71304;DHT22;59091;47.446;19.148;2022-09-12T01:50:51;16.21;72.63
71304;DHT22;59091;47.446;19.148;2022-09-12T01:53:25;16.25;72.38
71304;DHT22;59091;47.446;19.148;2022-09-12T01:56:01;16.18;72.58
71304;DHT22;59091;47.446;19.148;2022-09-12T01:58:38;16.07;72.60
71304;DHT22;59091;47.446;19.148;2022-09-12T02:01:15;16.18;72.51
71304;DHT22;59091;47.446;19.148;2022-09-12T02:04:05;16.07;72.62
71304;DHT22;59091;47.446;19.148;2022-09-12T02:06:43;16.06;72.58
71304;DHT22;59091;47.446;19.148;2022-09-12T02:09:20;16.16;72.42
71304;DHT22;59091;47.446;19.148;2022-09-12T02:11:49;16.14;72.41
71304;DHT22;59091;47.446;19.148;2022-09-12T02:14:41;16.02;72.30
71304;DHT22;59091;47.446;19.148;2022-09-12T02:17:13;15.97;72.66
71304;DHT22;59091;47.446;19.148;2022-09-12T02:19:44;15.99;72.68
71304;DHT22;59091;47.446;19.148;2022-09-12T02:22:14;16.10;72.58
71304;DHT22;59091;47.446;19.148;2022-09-12T02:24:45;16.17;72.37
71304;DHT22;59091;47.446;19.148;2022-09-12T02:27:15;16.14;72.39
71304;DHT22;59091;47.446;19.148;2022-09-12T02:29:42;16.07;72.59
71304;DHT22;59091;47.446;19.148;2022-09-12T02:35:21;16.07;72.71
71304;DHT22;59091;47.446;19.148;2022-09-12T02:38:01;16.00;72.85
71304;DHT22;59091;47.446;19.148;2022-09-12T02:40:29;16.04;72.97
71304;DHT22;59091;47.446;19.148;2022-09-12T02:42:56;16.14;72.67
71304;DHT22;59091;47.446;19.148;2022-09-12T02:45:22;16.18;72.55
71304;DHT22;59091;47.446;19.148;2022-09-12T02:47:51;16.17;72.44
71304;DHT22;59091;47.446;19.148;2022-09-12T02:50:18;16.13;72.71
71304;DHT22;59091;47.446;19.148;2022-09-12T02:52:44;16.09;73.07
71304;DHT22;59091;47.446;19.148;2022-09-12T02:55:10;16.07;73.05
71304;DHT22;59091;47.446;19.148;2022-09-12T02:57:36;16.04;73.39
71304;DHT22;59091;47.446;19.148;2022-09-12T03:00:03;16.06;73.35
71304;DHT22;59091;47.446;19.148;2022-09-12T03:05:23;16.12;72.92
71304;DHT22;59091;47.446;19.148;2022-09-12T03:08:12;16.16;72.82
71304;DHT22;59091;47.446;19.148;2022-09-12T03:16:03;16.17;72.78
71304;DHT22;59091;47.446;19.148;2022-09-12T03:21:27;16.16;73.22
71304;DHT22;59091;47.446;19.148;2022-09-12T03:24:15;16.16;72.94
71304;DHT22;59091;47.446;19.148;2022-09-12T03:27:12;16.12;73.19
71304;DHT22;59091;47.446;19.148;2022-09-12T03:29:41;16.13;73.40
71304;DHT22;59091;47.446;19.148;2022-09-12T03:32:07;16.20;73.35
71304;DHT22;59091;47.446;19.148;2022-09-12T03:34:33;16.25;73.06
71304;DHT22;59091;47.446;19.148;2022-09-12T03:36:58;16.24;73.18
71304;DHT22;59091;47.446;19.148;2022-09-12T03:39:25;16.10;73.52
71304;DHT22;59091;47.446;19.148;2022-09-12T03:41:51;16.06;73.84
71304;DHT22;59091;47.446;19.148;2022-09-12T03:44:17;16.06;73.79
71304;DHT22;59091;47.446;19.148;2022-09-12T03:46:43;15.96;73.97
71304;DHT22;59091;47.446;19.148;2022-09-12T03:49:09;15.99;74.07
71304;DHT22;59091;47.446;19.148;2022-09-12T03:51:35;16.00;73.92
71304;DHT22;59091;47.446;19.148;2022-09-12T03:54:00;15.96;73.73
71304;DHT22;59091;47.446;19.148;2022-09-12T03:56:26;15.89;74.06
71304;DHT22;59091;47.446;19.148;2022-09-12T03:58:51;15.99;73.71
71304;DHT22;59091;47.446;19.148;2022-09-12T04:01:18;15.93;73.81
71304;DHT22;59091;47.446;19.148;2022-09-12T04:03:46;15.99;73.51
71304;DHT22;59091;47.446;19.148;2022-09-12T04:06:13;16.00;73.39
71304;DHT22;59091;47.446;19.148;2022-09-12T04:08:40;16.06;73.06
71304;DHT22;59091;47.446;19.148;2022-09-12T04:11:08;15.96;73.10
71304;DHT22;59091;47.446;19.148;2022-09-12T04:13:35;15.97;73.14
71304;DHT22;59091;47.446;19.148;2022-09-12T04:16:01;15.99;73.06
71304;DHT22;59091;47.446;19.148;2022-09-12T04:18:27;15.97;72.94
71304;DHT22;59091;47.446;19.148;2022-09-12T04:20:52;16.00;72.76
71304;DHT22;59091;47.446;19.148;2022-09-12T04:23:18;16.07;73.44
71304;DHT22;59091;47.446;19.148;2022-09-12T04:25:44;16.38;71.99
71304;DHT22;59091;47.446;19.148;2022-09-12T04:28:17;16.69;72.65
71304;DHT22;59091;47.446;19.148;2022-09-12T04:30:42;17.12;71.42
71304;DHT22;59091;47.446;19.148;2022-09-12T04:33:07;17.50;70.05
71304;DHT22;59091;47.446;19.148;2022-09-12T04:35:34;17.77;68.97
71304;DHT22;59091;47.446;19.148;2022-09-12T04:37:59;17.71;67.68
71304;DHT22;59091;47.446;19.148;2022-09-12T04:40:25;17.84;67.47
71304;DHT22;59091;47.446;19.148;2022-09-12T04:42:50;17.78;66.14
71304;DHT22;59091;47.446;19.148;2022-09-12T04:45:15;17.42;67.01
71304;DHT22;59091;47.446;19.148;2022-09-12T04:47:41;17.18;67.82
71304;DHT22;59091;47.446;19.148;2022-09-12T04:50:06;17.01;68.12
71304;DHT22;59091;47.446;19.148;2022-09-12T04:52:32;16.78;69.21
71304;DHT22;59091;47.446;19.148;2022-09-12T04:54:57;16.72;69.29
71304;DHT22;59091;47.446;19.148;2022-09-12T04:57:23;16.76;69.21
71304;DHT22;59091;47.446;19.148;2022-09-12T04:59:49;16.86;71.71
71304;DHT22;59091;47.446;19.148;2022-09-12T05:02:14;16.95;68.64
71304;DHT22;59091;47.446;19.148;2022-09-12T05:04:40;16.75;69.05
71304;DHT22;59091;47.446;19.148;2022-09-12T05:07:05;16.86;69.55
71304;DHT22;59091;47.446;19.148;2022-09-12T05:09:31;17.08;69.86
71304;DHT22;59091;47.446;19.148;2022-09-12T05:11:56;17.19;69.09
71304;DHT22;59091;47.446;19.148;2022-09-12T05:14:22;17.22;67.52
71304;DHT22;59091;47.446;19.148;2022-09-12T05:16:47;17.49;68.17
71304;DHT22;59091;47.446;19.148;2022-09-12T05:19:13;17.54;66.88
71304;DHT22;59091;47.446;19.148;2022-09-12T05:21:39;17.70;66.64
71304;DHT22;59091;47.446;19.148;2022-09-12T05:24:04;17.74;66.83
71304;DHT22;59091;47.446;19.148;2022-09-12T05:26:31;17.67;66.64
71304;DHT22;59091;47.446;19.148;2022-09-12T05:28:56;17.74;66.65
71304;DHT22;59091;47.446;19.148;2022-09-12T05:31:26;18.08;66.04
71304;DHT22;59091;47.446;19.148;2022-09-12T05:33:54;18.05;65.04
71304;DHT22;59091;47.446;19.148;2022-09-12T05:36:25;18.28;65.09
71304;DHT22;59091;47.446;19.148;2022-09-12T05:38:51;18.02;64.09
71304;DHT22;59091;47.446;19.148;2022-09-12T05:41:24;18.15;65.18
71304;DHT22;59091;47.446;19.148;2022-09-12T05:43:51;18.08;64.29
71304;DHT22;59091;47.446;19.148;2022-09-12T05:46:20;18.31;64.65
71304;DHT22;59091;47.446;19.148;2022-09-12T05:48:46;18.27;64.22
71304;DHT22;59091;47.446;19.148;2022-09-12T05:51:18;18.09;63.93
71304;DHT22;59091;47.446;19.148;2022-09-12T05:53:49;18.31;64.67
71304;DHT22;59091;47.446;19.148;2022-09-12T05:56:18;18.34;63.17
71304;DHT22;59091;47.446;19.148;2022-09-12T05:58:46;18.28;63.07
71304;DHT22;59091;47.446;19.148;2022-09-12T06:01:14;18.62;63.64
71304;DHT22;59091;47.446;19.148;2022-09-12T06:03:42;18.68;61.93
71304;DHT22;59091;47.446;19.148;2022-09-12T06:06:09;18.38;62.43
71304;DHT22;59091;47.446;19.148;2022-09-12T06:08:38;18.25;63.08
71304;DHT22;59091;47.446;19.148;2022-09-12T06:11:05;18.15;63.31
71304;DHT22;59091;47.446;19.148;2022-09-12T06:13:33;17.93;64.07
71304;DHT22;59091;47.446;19.148;2022-09-12T06:16:07;17.91;64.20
71304;DHT22;59091;47.446;19.148;2022-09-12T06:18:33;17.94;64.36
71304;DHT22;59091;47.446;19.148;2022-09-12T06:21:10;17.83;64.14
71304;DHT22;59091;47.446;19.148;2022-09-12T06:23:37;17.94;64.19
71304;DHT22;59091;47.446;19.148;2022-09-12T06:26:04;18.02;63.54
71304;DHT22;59091;47.446;19.148;2022-09-12T06:28:31;18.04;63.32
71304;DHT22;59091;47.446;19.148;2022-09-12T06:31:17;17.84;63.00
71304;DHT22;59091;47.446;19.148;2022-09-12T06:33:46;17.87;62.91
71304;DHT22;59091;47.446;19.148;2022-09-12T06:36:23;17.98;62.98
71304;DHT22;59091;47.446;19.148;2022-09-12T06:39:01;18.09;62.77
71304;DHT22;59091;47.446;19.148;2022-09-12T06:41:27;18.07;62.54
71304;DHT22;59091;47.446;19.148;2022-09-12T06:43:53;18.15;62.34
71304;DHT22;59091;47.446;19.148;2022-09-12T06:46:20;18.32;62.10
71304;DHT22;59091;47.446;19.148;2022-09-12T06:48:45;18.36;62.08
71304;DHT22;59091;47.446;19.148;2022-09-12T06:51:13;18.44;61.98
71304;DHT22;59091;47.446;19.148;2022-09-12T06:53:39;18.42;61.28
71304;DHT22;59091;47.446;19.148;2022-09-12T06:56:10;18.53;61.01
71304;DHT22;59091;47.446;19.148;2022-09-12T06:58:36;18.44;61.29
71304;DHT22;59091;47.446;19.148;2022-09-12T07:01:05;18.53;61.55
71304;DHT22;59091;47.446;19.148;2022-09-12T07:03:32;18.58;61.10
71304;DHT22;59091;47.446;19.148;2022-09-12T07:06:05;18.73;60.79
71304;DHT22;59091;47.446;19.148;2022-09-12T07:08:31;18.58;60.37
71304;DHT22;59091;47.446;19.148;2022-09-12T07:10:59;18.66;60.66
71304;DHT22;59091;47.446;19.148;2022-09-12T07:13:25;18.82;60.13
71304;DHT22;59091;47.446;19.148;2022-09-12T07:15:51;18.87;59.77
71304;DHT22;59091;47.446;19.148;2022-09-12T07:18:16;18.87;60.04
71304;DHT22;59091;47.446;19.148;2022-09-12T07:20:42;19.10;60.04
71304;DHT22;59091;47.446;19.148;2022-09-12T07:23:07;19.26;58.90
71304;DHT22;59091;47.446;19.148;2022-09-12T07:25:33;19.28;58.30
71304;DHT22;59091;47.446;19.148;2022-09-12T07:27:58;19.32;57.32
71304;DHT22;59091;47.446;19.148;2022-09-12T07:30:24;19.46;56.50
71304;DHT22;59091;47.446;19.148;2022-09-12T07:32:53;19.41;57.26
71304;DHT22;59091;47.446;19.148;2022-09-12T07:35:20;19.46;56.57
71304;DHT22;59091;47.446;19.148;2022-09-12T07:37:45;19.58;56.89
71304;DHT22;59091;47.446;19.148;2022-09-12T07:40:11;19.85;56.27
71304;DHT22;59091;47.446;19.148;2022-09-12T07:42:36;19.99;54.67
71304;DHT22;59091;47.446;19.148;2022-09-12T07:45:02;20.25;53.46
71304;DHT22;59091;47.446;19.148;2022-09-12T07:47:27;20.39;54.33
71304;DHT22;59091;47.446;19.148;2022-09-12T07:49:53;20.20;53.34
71304;DHT22;59091;47.446;19.148;2022-09-12T07:52:18;20.18;53.50
71304;DHT22;59091;47.446;19.148;2022-09-12T07:54:43;20.54;53.41
71304;DHT22;59091;47.446;19.148;2022-09-12T07:57:09;20.66;52.88
71304;DHT22;59091;47.446;19.148;2022-09-12T07:59:34;20.85;52.97
71304;DHT22;59091;47.446;19.148;2022-09-12T08:02:02;20.90;52.25
71304;DHT22;59091;47.446;19.148;2022-09-12T08:04:28;20.79;50.39
71304;DHT22;59091;47.446;19.148;2022-09-12T08:06:54;20.88;50.62
71304;DHT22;59091;47.446;19.148;2022-09-12T08:09:20;21.34;51.05
71304;DHT22;59091;47.446;19.148;2022-09-12T08:11:45;21.58;50.01
71304;DHT22;59091;47.446;19.148;2022-09-12T08:14:10;21.89;49.37
71304;DHT22;59091;47.446;19.148;2022-09-12T08:16:36;22.09;48.36
71304;DHT22;59091;47.446;19.148;2022-09-12T08:19:02;22.21;47.91
71304;DHT22;59091;47.446;19.148;2022-09-12T08:21:30;22.40;46.71
71304;DHT22;59091;47.446;19.148;2022-09-12T08:24:03;22.54;46.41
71304;DHT22;59091;47.446;19.148;2022-09-12T08:26:30;22.67;46.36
71304;DHT22;59091;47.446;19.148;2022-09-12T08:28:57;22.75;46.04
71304;DHT22;59091;47.446;19.148;2022-09-12T08:31:24;22.43;45.84
71304;DHT22;59091;47.446;19.148;2022-09-12T08:33:50;22.36;46.73
71304;DHT22;59091;47.446;19.148;2022-09-12T08:36:21;22.13;47.02
71304;DHT22;59091;47.446;19.148;2022-09-12T08:38:53;21.97;47.81
71304;DHT22;59091;47.446;19.148;2022-09-12T08:41:38;22.04;47.86
71304;DHT22;59091;47.446;19.148;2022-09-12T08:44:29;21.94;48.79
71304;DHT22;59091;47.446;19.148;2022-09-12T08:47:22;22.00;48.42
71304;DHT22;59091;47.446;19.148;2022-09-12T08:50:11;22.14;48.26
71304;DHT22;59091;47.446;19.148;2022-09-12T08:55:34;21.99;49.34
71304;DHT22;59091;47.446;19.148;2022-09-12T08:58:14;21.93;48.23
71304;DHT22;59091;47.446;19.148;2022-09-12T09:04:00;21.93;48.49
71304;DHT22;59091;47.446;19.148;2022-09-12T09:09:07;22.03;48.80
71304;DHT22;59091;47.446;19.148;2022-09-12T09:14:50;21.99;49.00
71304;DHT22;59091;47.446;19.148;2022-09-12T09:19:47;21.94;48.09
71304;DHT22;59091;47.446;19.148;2022-09-12T09:22:30;21.97;49.01
71304;DHT22;59091;47.446;19.148;2022-09-12T09:25:04;21.89;48.22
71304;DHT22;59091;47.446;19.148;2022-09-12T09:27:34;22.10;49.69
71304;DHT22;59091;47.446;19.148;2022-09-12T09:30:01;22.03;49.12
71304;DHT22;59091;47.446;19.148;2022-09-12T09:32:34;21.94;48.96
71304;DHT22;59091;47.446;19.148;2022-09-12T09:35:13;22.16;49.55
71304;DHT22;59091;47.446;19.148;2022-09-12T09:37:42;22.24;47.95
71304;DHT22;59091;47.446;19.148;2022-09-12T09:40:19;22.41;48.16
71304;DHT22;59091;47.446;19.148;2022-09-12T09:42:59;22.40;47.40
71304;DHT22;59091;47.446;19.148;2022-09-12T09:45:26;22.29;47.67
71304;DHT22;59091;47.446;19.148;2022-09-12T09:50:22;22.62;46.05
71304;DHT22;59091;47.446;19.148;2022-09-12T09:52:49;22.75;45.76
71304;DHT22;59091;47.446;19.148;2022-09-12T09:55:19;22.85;46.11
71304;DHT22;59091;47.446;19.148;2022-09-12T09:57:46;22.98;45.60
71304;DHT22;59091;47.446;19.148;2022-09-12T10:00:29;22.92;45.30
71304;DHT22;59091;47.446;19.148;2022-09-12T10:05:59;23.45;44.00
71304;DHT22;59091;47.446;19.148;2022-09-12T10:08:29;23.29;44.12
71304;DHT22;59091;47.446;19.148;2022-09-12T10:13:50;23.64;43.95
71304;DHT22;59091;47.446;19.148;2022-09-12T10:16:24;23.71;43.10
71304;DHT22;59091;47.446;19.148;2022-09-12T10:18:51;23.50;42.96
71304;DHT22;59091;47.446;19.148;2022-09-12T10:21:37;23.66;43.41
71304;DHT22;59091;47.446;19.148;2022-09-12T10:24:33;23.81;43.26
71304;DHT22;59091;47.446;19.148;2022-09-12T10:30:04;23.39;44.84
71304;DHT22;59091;47.446;19.148;2022-09-12T10:32:33;23.49;44.50
71304;DHT22;59091;47.446;19.148;2022-09-12T10:35:16;23.32;42.93
71304;DHT22;59091;47.446;19.148;2022-09-12T10:37:53;22.91;43.13
71304;DHT22;59091;47.446;19.148;2022-09-12T10:40:23;22.75;42.96
71304;DHT22;59091;47.446;19.148;2022-09-12T10:42:57;22.55;44.42
71304;DHT22;59091;47.446;19.148;2022-09-12T10:45:31;22.33;44.32
71304;DHT22;59091;47.446;19.148;2022-09-12T10:48:02;22.57;44.00
71304;DHT22;59091;47.446;19.148;2022-09-12T10:50:37;22.61;44.14
71304;DHT22;59091;47.446;19.148;2022-09-12T11:18:22;24.00;43.57
71304;DHT22;59091;47.446;19.148;2022-09-12T11:23:56;23.88;41.55
71304;DHT22;59091;47.446;19.148;2022-09-12T11:26:38;23.77;41.55
71304;DHT22;59091;47.446;19.148;2022-09-12T11:34:41;23.33;42.21
71304;DHT22;59091;47.446;19.148;2022-09-12T11:39:37;23.03;43.80
71304;DHT22;59091;47.446;19.148;2022-09-12T11:42:06;22.91;44.14
71304;DHT22;59091;47.446;19.148;2022-09-12T11:44:37;22.94;44.16
71304;DHT22;59091;47.446;19.148;2022-09-12T11:47:07;23.29;44.36
71304;DHT22;59091;47.446;19.148;2022-09-12T11:49:41;23.62;43.09
71304;DHT22;59091;47.446;19.148;2022-09-12T11:52:17;23.85;42.83
71304;DHT22;59091;47.446;19.148;2022-09-12T11:55:01;24.08;42.76
71304;DHT22;59091;47.446;19.148;2022-09-12T12:00:18;23.30;42.58
71304;DHT22;59091;47.446;19.148;2022-09-12T12:03:06;23.30;43.45
71304;DHT22;59091;47.446;19.148;2022-09-12T12:05:39;23.08;43.91
71304;DHT22;59091;47.446;19.148;2022-09-12T12:08:07;22.91;44.03
71304;DHT22;59091;47.446;19.148;2022-09-12T12:10:48;22.68;44.62
71304;DHT22;59091;47.446;19.148;2022-09-12T12:13:29;22.65;45.29
71304;DHT22;59091;47.446;19.148;2022-09-12T12:16:01;22.47;45.18
71304;DHT22;59091;47.446;19.148;2022-09-12T12:18:30;22.45;45.27
71304;DHT22;59091;47.446;19.148;2022-09-12T12:29:03;23.03;45.01
71304;DHT22;59091;47.446;19.148;2022-09-12T12:31:29;23.36;45.92
71304;DHT22;59091;47.446;19.148;2022-09-12T12:34:03;23.47;43.85
71304;DHT22;59091;47.446;19.148;2022-09-12T12:36:37;23.47;44.28
71304;DHT22;59091;47.446;19.148;2022-09-12T12:41:56;23.57;43.91
71304;DHT22;59091;47.446;19.148;2022-09-12T12:52:52;23.49;43.50
71304;DHT22;59091;47.446;19.148;2022-09-12T12:55:25;23.53;44.42
71304;DHT22;59091;47.446;19.148;2022-09-12T12:57:55;23.52;44.74
71304;DHT22;59091;47.446;19.148;2022-09-12T13:00:24;23.41;43.85
71304;DHT22;59091;47.446;19.148;2022-09-12T13:05:47;23.52;43.32
71304;DHT22;59091;47.446;19.148;2022-09-12T13:15:57;23.62;43.08
71304;DHT22;59091;47.446;19.148;2022-09-12T13:18:26;23.60;42.80
71304;DHT22;59091;47.446;19.148;2022-09-12T13:21:16;23.54;42.72
71304;DHT22;59091;47.446;19.148;2022-09-12T13:23:42;23.54;43.16
71304;DHT22;59091;47.446;19.148;2022-09-12T13:26:11;23.41;43.12
71304;DHT22;59091;47.446;19.148;2022-09-12T13:28:37;23.18;43.89
71304;DHT22;59091;47.446;19.148;2022-09-12T13:31:11;23.11;44.39
71304;DHT22;59091;47.446;19.148;2022-09-12T13:39:00;23.16;44.36
71304;DHT22;59091;47.446;19.148;2022-09-12T13:44:16;23.09;43.55
71304;DHT22;59091;47.446;19.148;2022-09-12T13:46:43;23.11;43.38
71304;DHT22;59091;47.446;19.148;2022-09-12T13:49:36;23.12;43.10
71304;DHT22;59091;47.446;19.148;2022-09-12T13:52:08;23.11;43.12
71304;DHT22;59091;47.446;19.148;2022-09-12T13:54:39;22.98;43.49
71304;DHT22;59091;47.446;19.148;2022-09-12T13:57:26;22.65;43.82
71304;DHT22;59091;47.446;19.148;2022-09-12T13:59:54;22.62;43.47
71304;DHT22;59091;47.446;19.148;2022-09-12T14:02:23;22.54;43.15
71304;DHT22;59091;47.446;19.148;2022-09-12T14:04:52;22.71;42.52
71304;DHT22;59091;47.446;19.148;2022-09-12T14:07:53;22.82;42.85
71304;DHT22;59091;47.446;19.148;2022-09-12T14:10:34;22.99;42.42
71304;DHT22;59091;47.446;19.148;2022-09-12T14:13:22;23.13;40.84
71304;DHT22;59091;47.446;19.148;2022-09-12T14:15:50;23.16;40.08
71304;DHT22;59091;47.446;19.148;2022-09-12T14:18:24;23.08;38.95
71304;DHT22;59091;47.446;19.148;2022-09-12T14:20:50;23.05;38.24
71304;DHT22;59091;47.446;19.148;2022-09-12T14:23:27;23.12;37.68
71304;DHT22;59091;47.446;19.148;2022-09-12T14:25:54;23.18;37.56
71304;DHT22;59091;47.446;19.148;2022-09-12T14:28:21;23.18;38.20
71304;DHT22;59091;47.446;19.148;2022-09-12T14:31:03;23.08;38.12
71304;DHT22;59091;47.446;19.148;2022-09-12T14:33:44;23.24;37.96
71304;DHT22;59091;47.446;19.148;2022-09-12T14:38:42;23.26;38.32
71304;DHT22;59091;47.446;19.148;2022-09-12T14:41:10;23.19;38.81
71304;DHT22;59091;47.446;19.148;2022-09-12T14:43:42;23.22;38.66
71304;DHT22;59091;47.446;19.148;2022-09-12T14:46:21;23.16;39.32
71304;DHT22;59091;47.446;19.148;2022-09-12T14:48:51;23.02;38.61
71304;DHT22;59091;47.446;19.148;2022-09-12T14:51:30;22.95;38.31
71304;DHT22;59091;47.446;19.148;2022-09-12T14:53:56;23.11;38.61
71304;DHT22;59091;47.446;19.148;2022-09-12T14:56:41;23.18;38.21
71304;DHT22;59091;47.446;19.148;2022-09-12T15:04:44;23.11;38.31
71304;DHT22;59091;47.446;19.148;2022-09-12T15:07:35;23.02;37.94
71304;DHT22;59091;47.446;19.148;2022-09-12T15:10:05;23.15;38.33
71304;DHT22;59091;47.446;19.148;2022-09-12T15:12:31;23.06;37.78
71304;DHT22;59091;47.446;19.148;2022-09-12T15:15:03;23.09;36.90
71304;DHT22;59091;47.446;19.148;2022-09-12T15:17:31;23.05;37.47
71304;DHT22;59091;47.446;19.148;2022-09-12T15:19:56;23.12;37.61
71304;DHT22;59091;47.446;19.148;2022-09-12T15:22:22;23.08;37.91
71304;DHT22;59091;47.446;19.148;2022-09-12T15:24:48;23.01;38.05
71304;DHT22;59091;47.446;19.148;2022-09-12T15:27:13;22.78;37.84
71304;DHT22;59091;47.446;19.148;2022-09-12T15:29:39;22.79;38.24
71304;DHT22;59091;47.446;19.148;2022-09-12T15:32:05;22.78;38.26
71304;DHT22;59091;47.446;19.148;2022-09-12T15:34:31;22.78;38.33
71304;DHT22;59091;47.446;19.148;2022-09-12T15:36:57;22.65;38.74
71304;DHT22;59091;47.446;19.148;2022-09-12T15:39:22;22.64;38.71
71304;DHT22;59091;47.446;19.148;2022-09-12T15:41:47;22.47;39.09
71304;DHT22;59091;47.446;19.148;2022-09-12T15:44:13;22.54;39.09
71304;DHT22;59091;47.446;19.148;2022-09-12T15:46:39;22.48;39.29
71304;DHT22;59091;47.446;19.148;2022-09-12T15:49:05;22.51;39.07
71304;DHT22;59091;47.446;19.148;2022-09-12T15:51:31;22.52;40.07
71304;DHT22;59091;47.446;19.148;2022-09-12T15:53:57;22.55;39.29
71304;DHT22;59091;47.446;19.148;2022-09-12T15:56:23;22.52;39.08
71304;DHT22;59091;47.446;19.148;2022-09-12T15:58:49;22.48;39.57
71304;DHT22;59091;47.446;19.148;2022-09-12T16:01:15;22.29;39.37
71304;DHT22;59091;47.446;19.148;2022-09-12T16:03:42;22.33;39.30
71304;DHT22;59091;47.446;19.148;2022-09-12T16:06:09;22.30;39.46
71304;DHT22;59091;47.446;19.148;2022-09-12T16:08:35;22.18;39.57
71304;DHT22;59091;47.446;19.148;2022-09-12T16:11:03;22.23;39.38
71304;DHT22;59091;47.446;19.148;2022-09-12T16:13:29;22.07;39.37
71304;DHT22;59091;47.446;19.148;2022-09-12T16:15:56;22.09;39.51
71304;DHT22;59091;47.446;19.148;2022-09-12T16:18:22;22.00;39.75
71304;DHT22;59091;47.446;19.148;2022-09-12T16:20:51;21.97;40.54
71304;DHT22;59091;47.446;19.148;2022-09-12T16:23:17;22.02;40.18
71304;DHT22;59091;47.446;19.148;2022-09-12T16:25:42;21.93;40.31
71304;DHT22;59091;47.446;19.148;2022-09-12T16:28:08;21.88;40.47
71304;DHT22;59091;47.446;19.148;2022-09-12T16:30:33;21.99;40.34
71304;DHT22;59091;47.446;19.148;2022-09-12T16:32:59;21.86;40.63
71304;DHT22;59091;47.446;19.148;2022-09-12T16:35:24;21.79;40.92
71304;DHT22;59091;47.446;19.148;2022-09-12T16:37:50;21.85;40.89
71304;DHT22;59091;47.446;19.148;2022-09-12T16:40:15;21.75;41.14
71304;DHT22;59091;47.446;19.148;2022-09-12T16:42:44;21.56;41.59
71304;DHT22;59091;47.446;19.148;2022-09-12T16:45:10;21.52;41.96
71304;DHT22;59091;47.446;19.148;2022-09-12T16:47:35;21.49;41.90
71304;DHT22;59091;47.446;19.148;2022-09-12T16:50:00;21.61;42.04
71304;DHT22;59091;47.446;19.148;2022-09-12T16:52:26;21.65;41.81
71304;DHT22;59091;47.446;19.148;2022-09-12T16:54:51;21.51;41.91
71304;DHT22;59091;47.446;19.148;2022-09-12T16:57:16;21.52;42.03
71304;DHT22;59091;47.446;19.148;2022-09-12T16:59:42;21.39;42.18
71304;DHT22;59091;47.446;19.148;2022-09-12T17:02:11;21.39;42.12
71304;DHT22;59091;47.446;19.148;2022-09-12T17:04:37;21.35;42.20
71304;DHT22;59091;47.446;19.148;2022-09-12T17:07:03;21.21;42.63
71304;DHT22;59091;47.446;19.148;2022-09-12T17:09:28;21.24;42.55
71304;DHT22;59091;47.446;19.148;2022-09-12T17:11:54;21.27;42.63
71304;DHT22;59091;47.446;19.148;2022-09-12T17:14:20;21.22;42.76
71304;DHT22;59091;47.446;19.148;2022-09-12T17:16:46;21.14;43.02
71304;DHT22;59091;47.446;19.148;2022-09-12T17:19:20;21.04;43.08
71304;DHT22;59091;47.446;19.148;2022-09-12T17:21:46;21.01;43.27
71304;DHT22;59091;47.446;19.148;2022-09-12T17:24:13;20.91;43.53
71304;DHT22;59091;47.446;19.148;2022-09-12T17:26:39;20.91;43.30
71304;DHT22;59091;47.446;19.148;2022-09-12T17:29:04;20.76;43.80
71304;DHT22;59091;47.446;19.148;2022-09-12T17:31:30;20.85;43.61
71304;DHT22;59091;47.446;19.148;2022-09-12T17:33:57;20.90;43.49
71304;DHT22;59091;47.446;19.148;2022-09-12T17:36:23;20.83;43.70
71304;DHT22;59091;47.446;19.148;2022-09-12T17:38:48;20.69;43.90
71304;DHT22;59091;47.446;19.148;2022-09-12T17:41:18;20.70;43.78
71304;DHT22;59091;47.446;19.148;2022-09-12T17:43:50;20.61;43.82
71304;DHT22;59091;47.446;19.148;2022-09-12T17:46:17;20.66;43.86
71304;DHT22;59091;47.446;19.148;2022-09-12T17:48:42;20.61;43.88
71304;DHT22;59091;47.446;19.148;2022-09-12T17:51:13;20.61;43.72
71304;DHT22;59091;47.446;19.148;2022-09-12T17:53:40;20.66;43.80